Time;durP1;ratioP1;P1;durP2;ratioP2;P2;SDS_P1;SDS_P2;PMS_P1;PMS_P2;Temp;Humidity;BMP_temperature;BMP_pressure;BME280_temperature;BME280_humidity;BME280_pressure;Samples;Min_cycle;Max_cycle;Signal;HPM_P1;HPM_P2
2023/07/09 00:00:51;;;;;;;13.25;11.25;;;;;;;24.69;61.37;101574.81;5019806;28;20029;-81
2023/07/09 00:03:18;;;;;;;15.15;11.07;;;;;;;24.71;60.27;101580.91;5021545;28;20026;-81
2023/07/09 00:05:46;;;;;;;16.38;12.82;;;;;;;24.77;60.50;101579.53;5021263;28;20041;-81
2023/07/09 00:08:26;;;;;;;15.32;12.68;;;;;;;24.83;59.71;101582.53;5022614;28;20056;-81
2023/07/09 00:10:52;;;;;;;17.33;13.02;;;;;;;24.73;60.62;101578.94;5028724;28;20035;-81
2023/07/09 00:13:17;;;;;;;19.17;16.08;;;;;;;24.64;62.30;101577.06;5021396;28;20194;-81
2023/07/09 00:15:43;;;;;;;18.77;14.35;;;;;;;24.52;61.11;101589.78;5035391;28;20147;-81
2023/07/09 00:18:09;;;;;;;15.43;12.95;;;;;;;24.47;61.99;101596.59;5030620;28;20049;-81
2023/07/09 00:20:35;;;;;;;16.73;12.90;;;;;;;24.55;62.11;101602.19;5032604;28;20021;-81
2023/07/09 00:23:00;;;;;;;19.40;13.45;;;;;;;24.36;63.18;101600.22;5019113;28;20018;-81
2023/07/09 00:25:25;;;;;;;18.35;12.55;;;;;;;24.17;63.72;101590.97;5022258;28;20044;-81
2023/07/09 00:27:51;;;;;;;15.13;12.30;;;;;;;24.27;63.18;101601.00;5022001;28;20488;-81
2023/07/09 00:30:19;;;;;;;19.00;12.35;;;;;;;24.31;62.56;101600.59;5024651;28;20499;-81
2023/07/09 00:32:45;;;;;;;16.23;12.25;;;;;;;24.30;62.26;101604.31;5027710;28;20380;-81
2023/07/09 00:35:15;;;;;;;14.45;12.32;;;;;;;24.28;62.53;101606.25;5015541;28;20021;-81
2023/07/09 00:37:41;;;;;;;14.32;12.13;;;;;;;24.31;62.12;101597.03;5030166;28;20023;-81
2023/07/09 00:40:18;;;;;;;17.20;12.77;;;;;;;24.23;62.30;101595.00;5032578;28;20029;-81
2023/07/09 00:42:46;;;;;;;19.67;12.75;;;;;;;24.31;62.03;101602.44;5022565;28;20116;-81
2023/07/09 00:45:19;;;;;;;18.75;12.60;;;;;;;24.24;63.01;101598.53;5022362;28;20558;-81
2023/07/09 00:47:44;;;;;;;20.02;13.32;;;;;;;24.06;63.33;101603.66;5030932;28;20029;-81
2023/07/09 00:50:21;;;;;;;18.83;13.73;;;;;;;23.79;64.57;101601.50;5033613;28;20037;-81
2023/07/09 00:52:54;;;;;;;19.55;13.13;;;;;;;23.56;64.78;101606.06;5031072;28;20058;-81
2023/07/09 00:55:25;;;;;;;18.73;13.23;;;;;;;23.36;65.72;101603.19;5026014;28;20037;-81
2023/07/09 00:57:57;;;;;;;18.20;13.50;;;;;;;23.24;66.30;101598.78;5030327;28;20041;-81
2023/07/09 01:00:30;;;;;;;17.38;13.60;;;;;;;23.26;66.00;101599.50;5017684;28;20029;-81
2023/07/09 01:02:58;;;;;;;16.10;12.45;;;;;;;23.55;64.75;101602.50;5024672;28;20033;-81
2023/07/09 01:05:23;;;;;;;15.93;11.18;;;;;;;23.67;64.13;101595.25;5025317;28;20397;-81
2023/07/09 01:07:48;;;;;;;15.20;12.07;;;;;;;23.72;64.27;101592.16;5020067;28;20083;-81
2023/07/09 01:10:17;;;;;;;17.98;12.60;;;;;;;23.75;64.76;101594.63;5025936;28;20055;-81
2023/07/09 01:12:44;;;;;;;16.15;12.57;;;;;;;23.76;64.50;101594.47;5037757;28;20530;-81
2023/07/09 01:15:11;;;;;;;20.83;12.27;;;;;;;23.78;64.53;101595.22;5024013;28;20392;-81
2023/07/09 01:17:36;;;;;;;17.92;12.75;;;;;;;23.79;64.46;101594.25;5024667;28;20423;-81
2023/07/09 01:20:03;;;;;;;18.17;13.98;;;;;;;23.46;65.37;101600.56;5028692;28;20024;-81
2023/07/09 01:22:29;;;;;;;18.13;12.30;;;;;;;23.21;66.46;101596.31;5025353;28;20377;-81
2023/07/09 01:25:01;;;;;;;19.00;13.60;;;;;;;23.13;66.65;101599.66;5027189;28;20041;-81
2023/07/09 01:27:35;;;;;;;17.35;13.63;;;;;;;23.23;66.36;101597.06;5022816;28;20385;-81
2023/07/09 01:30:12;;;;;;;14.93;11.95;;;;;;;23.37;66.81;101601.34;5022741;28;20032;-81
2023/07/09 01:32:38;;;;;;;12.80;11.38;;;;;;;23.40;66.09;101606.47;5020568;28;20025;-81
2023/07/09 01:35:06;;;;;;;16.15;11.77;;;;;;;23.40;65.16;101609.16;5028205;28;20033;-81
2023/07/09 01:37:34;;;;;;;17.13;11.95;;;;;;;23.44;64.32;101613.31;5024430;28;20058;-81
2023/07/09 01:39:59;;;;;;;15.50;12.18;;;;;;;23.37;65.00;101614.81;5014884;28;20053;-81
2023/07/09 01:42:28;;;;;;;16.63;12.35;;;;;;;23.32;64.79;101607.09;5021232;28;20071;-81
2023/07/09 01:44:54;;;;;;;15.63;12.43;;;;;;;23.19;66.36;101610.94;5019255;28;20036;-81
2023/07/09 01:47:20;;;;;;;18.35;12.73;;;;;;;23.04;66.42;101607.63;5018912;28;20510;-81
2023/07/09 01:49:46;;;;;;;18.20;12.05;;;;;;;23.02;66.49;101609.59;5029068;28;20028;-81
2023/07/09 01:52:13;;;;;;;18.98;13.32;;;;;;;22.97;66.75;101620.75;5026825;28;20021;-81
2023/07/09 01:54:39;;;;;;;17.17;13.27;;;;;;;22.94;66.04;101620.13;5026277;28;20034;-81
2023/07/09 01:57:24;;;;;;;15.70;12.38;;;;;;;23.07;65.61;101623.56;5024978;28;20048;-81
2023/07/09 01:59:54;;;;;;;16.98;12.23;;;;;;;23.10;65.63;101617.91;5018850;28;20034;-81
2023/07/09 02:02:22;;;;;;;14.55;12.05;;;;;;;23.14;66.70;101624.78;5030122;28;20025;-81
2023/07/09 02:04:50;;;;;;;14.57;12.55;;;;;;;23.22;65.37;101626.84;5027180;28;20472;-81
2023/07/09 02:07:16;;;;;;;17.85;13.40;;;;;;;23.22;64.76;101626.84;5027115;28;20471;-81
2023/07/09 02:09:42;;;;;;;16.95;12.50;;;;;;;23.27;64.75;101616.53;5028964;28;20362;-81
2023/07/09 02:12:09;;;;;;;16.83;13.10;;;;;;;23.26;64.60;101623.78;5033977;28;20032;-81
2023/07/09 02:14:35;;;;;;;15.55;12.75;;;;;;;23.26;65.43;101618.38;5025735;28;20158;-81
2023/07/09 02:17:00;;;;;;;14.82;13.27;;;;;;;23.09;66.13;101622.47;5030064;28;20017;-81
2023/07/09 02:19:25;;;;;;;15.63;12.95;;;;;;;23.11;65.47;101619.63;5023811;28;20030;-81
2023/07/09 02:21:50;;;;;;;18.58;13.15;;;;;;;23.08;65.77;101625.25;5025698;28;20112;-81
2023/07/09 02:24:16;;;;;;;16.67;13.05;;;;;;;22.87;66.42;101625.13;5020608;28;20482;-81
2023/07/09 02:26:41;;;;;;;16.85;13.10;;;;;;;22.77;66.86;101624.16;5033534;28;20041;-81
2023/07/09 02:29:07;;;;;;;21.67;13.32;;;;;;;22.81;66.53;101629.16;5018352;28;20485;-81
2023/07/09 02:31:33;;;;;;;15.85;12.05;;;;;;;22.93;67.08;101624.66;5026391;28;20029;-81
2023/07/09 02:33:59;;;;;;;15.07;12.82;;;;;;;22.84;65.84;101628.06;5025469;28;20472;-81
2023/07/09 02:36:24;;;;;;;16.65;12.75;;;;;;;22.84;66.32;101618.13;5019214;28;20049;-81
2023/07/09 02:38:49;;;;;;;15.57;12.43;;;;;;;22.90;65.91;101628.47;5018289;28;20053;-81
2023/07/09 02:41:15;;;;;;;14.93;12.60;;;;;;;22.97;65.74;101627.97;5021701;28;20050;-81
2023/07/09 02:43:40;;;;;;;13.70;11.45;;;;;;;22.97;66.26;101622.59;5021494;28;20033;-81
2023/07/09 02:46:06;;;;;;;17.02;12.60;;;;;;;22.92;65.44;101621.09;5030838;28;20101;-81
2023/07/09 02:48:31;;;;;;;17.52;13.20;;;;;;;22.92;66.09;101617.56;5024320;28;20052;-81
2023/07/09 02:50:56;;;;;;;20.85;14.02;;;;;;;22.87;66.06;101614.34;5021047;28;20108;-81
2023/07/09 02:53:21;;;;;;;16.43;12.97;;;;;;;22.82;66.92;101620.09;5018237;28;20020;-81
2023/07/09 02:55:47;;;;;;;17.20;13.05;;;;;;;22.83;66.80;101616.41;5024813;28;20292;-81
2023/07/09 02:58:12;;;;;;;18.30;12.75;;;;;;;22.85;65.96;101624.41;5034781;28;20025;-81
2023/07/09 03:00:37;;;;;;;18.23;13.88;;;;;;;22.82;66.09;101628.19;5031617;28;20036;-81
2023/07/09 03:03:03;;;;;;;22.73;14.40;;;;;;;22.80;66.33;101619.38;5019460;28;20516;-81
2023/07/09 03:05:28;;;;;;;16.55;13.63;;;;;;;22.74;66.32;101619.84;5018176;28;20285;-81
2023/07/09 03:07:53;;;;;;;21.45;14.02;;;;;;;22.55;67.71;101625.81;5023555;28;20033;-81
2023/07/09 03:10:18;;;;;;;21.75;16.55;;;;;;;22.28;68.32;101618.03;5029315;28;20107;-81
2023/07/09 03:12:44;;;;;;;20.80;16.30;;;;;;;22.18;69.18;101621.56;5022201;28;20048;-81
2023/07/09 03:15:09;;;;;;;22.15;16.73;;;;;;;22.07;69.60;101623.22;5018808;28;20120;-81
2023/07/09 03:17:34;;;;;;;18.77;13.77;;;;;;;22.24;67.96;101621.94;5033779;28;20407;-81
2023/07/09 03:20:00;;;;;;;18.58;14.73;;;;;;;22.38;67.67;101619.06;5034331;28;20511;-81
2023/07/09 03:22:25;;;;;;;19.75;14.23;;;;;;;22.49;68.12;101623.63;5028969;28;20504;-81
2023/07/09 03:24:50;;;;;;;20.13;14.00;;;;;;;22.53;67.01;101624.25;5027914;28;20081;-81
2023/07/09 03:27:15;;;;;;;21.08;14.68;;;;;;;22.58;66.27;101620.19;5025742;28;20037;-81
2023/07/09 03:29:41;;;;;;;18.77;14.23;;;;;;;22.58;67.06;101620.19;5033164;28;20025;-81
2023/07/09 03:32:06;;;;;;;20.05;14.02;;;;;;;22.58;67.77;101622.03;5045853;28;20037;-81
2023/07/09 03:34:32;;;;;;;18.00;14.07;;;;;;;22.51;67.31;101623.47;5028294;28;20029;-81
2023/07/09 03:36:57;;;;;;;17.42;13.82;;;;;;;22.52;68.79;101619.81;5023205;28;20112;-81
2023/07/09 03:39:22;;;;;;;17.25;13.23;;;;;;;22.53;67.63;101619.72;5031820;28;20048;-81
2023/07/09 03:41:47;;;;;;;16.30;13.65;;;;;;;22.51;67.40;101612.69;5028945;28;20046;-81
2023/07/09 03:44:13;;;;;;;16.50;13.93;;;;;;;22.44;67.34;101616.88;5029738;28;20052;-81
2023/07/09 03:46:38;;;;;;;24.30;15.95;;;;;;;22.38;67.96;101620.88;5025719;28;20476;-81
2023/07/09 03:49:03;;;;;;;20.17;16.35;;;;;;;22.25;68.72;101615.59;5023522;28;20402;-81
2023/07/09 03:51:29;;;;;;;21.38;17.80;;;;;;;22.15;69.32;101620.84;5022711;28;20032;-81
2023/07/09 03:53:54;;;;;;;18.70;16.15;;;;;;;22.11;69.50;101619.34;5022960;28;20462;-81
2023/07/09 03:56:19;;;;;;;23.80;17.17;;;;;;;22.06;69.78;101621.50;5029368;28;20021;-81
2023/07/09 03:58:46;;;;;;;23.13;16.63;;;;;;;22.07;69.73;101620.53;5038268;28;21154;-81
2023/07/09 04:01:11;;;;;;;24.02;18.27;;;;;;;21.82;71.19;101624.22;5033146;28;20538;-81
2023/07/09 04:03:36;;;;;;;21.52;16.23;;;;;;;21.56;72.11;101628.84;5022651;28;20059;-81
2023/07/09 04:06:01;;;;;;;23.00;14.30;;;;;;;21.62;70.83;101624.84;5026747;28;20022;-81
2023/07/09 04:08:27;;;;;;;20.42;14.77;;;;;;;21.75;70.02;101627.47;5041350;28;20029;-81
2023/07/09 04:10:59;;;;;;;21.58;14.23;;;;;;;21.80;70.26;101618.09;5033993;28;20029;-81
2023/07/09 04:13:26;;;;;;;19.58;14.35;;;;;;;21.77;70.34;101618.31;5022529;28;20105;-81
2023/07/09 04:15:51;;;;;;;18.45;12.52;;;;;;;21.86;69.22;101619.44;5035110;28;20444;-81
2023/07/09 04:18:17;;;;;;;20.77;14.80;;;;;;;22.00;69.57;101621.09;5028237;28;20108;-81
2023/07/09 04:20:42;;;;;;;21.42;14.45;;;;;;;22.08;70.03;101616.00;5042013;28;20035;-81
2023/07/09 04:23:09;;;;;;;18.48;15.25;;;;;;;22.07;70.57;101609.75;5023354;28;20452;-81
2023/07/09 04:25:34;;;;;;;22.30;17.70;;;;;;;22.07;70.90;101620.53;5017662;28;20477;-81
2023/07/09 04:27:59;;;;;;;20.25;14.73;;;;;;;22.04;71.07;101623.44;5016822;28;20033;-81
2023/07/09 04:30:25;;;;;;;20.70;13.45;;;;;;;22.12;69.80;101628.28;5028126;28;20456;-81
2023/07/09 04:32:50;;;;;;;19.85;14.07;;;;;;;22.19;70.12;101621.44;5028495;28;20101;-81
2023/07/09 04:35:15;;;;;;;21.85;14.95;;;;;;;22.33;69.61;101626.63;5020672;28;20029;-81
2023/07/09 04:37:41;;;;;;;18.33;12.93;;;;;;;22.43;69.04;101624.09;5019806;28;20022;-81
2023/07/09 04:40:10;;;;;;;16.77;13.25;;;;;;;22.53;69.53;101626.94;5024415;28;20104;-81
2023/07/09 04:42:36;;;;;;;21.50;15.20;;;;;;;22.65;68.08;101624.13;5029472;28;20569;-81
2023/07/09 04:45:01;;;;;;;23.38;16.95;;;;;;;22.79;69.06;101619.47;5018666;28;20021;-81
2023/07/09 04:47:27;;;;;;;27.35;18.33;;;;;;;22.83;69.05;101621.81;5020998;28;20401;-81
2023/07/09 04:49:52;;;;;;;21.88;16.85;;;;;;;22.86;70.66;101621.56;5023394;28;20037;-81
2023/07/09 04:52:17;;;;;;;20.75;17.95;;;;;;;22.92;70.46;101620.25;5033569;28;20030;-81
2023/07/09 04:54:45;;;;;;;23.75;19.02;;;;;;;23.04;68.34;101623.81;5033546;28;20021;-81
2023/07/09 04:57:12;;;;;;;22.45;17.50;;;;;;;23.15;68.47;101624.66;5030448;28;20117;-81
2023/07/09 04:59:38;;;;;;;27.70;20.20;;;;;;;23.29;68.35;101626.22;5029060;28;20020;-81
2023/07/09 05:02:03;;;;;;;24.25;20.25;;;;;;;23.32;68.20;101619.75;5024379;28;20049;-81
2023/07/09 05:04:29;;;;;;;27.02;20.42;;;;;;;23.42;67.05;101618.00;5036144;28;20365;-81
2023/07/09 05:06:56;;;;;;;27.73;22.50;;;;;;;23.46;68.07;101624.88;5024444;28;20029;-81
2023/07/09 05:09:23;;;;;;;27.58;21.85;;;;;;;23.52;67.38;101623.50;5022419;28;20084;-81
2023/07/09 05:11:49;;;;;;;26.35;21.35;;;;;;;23.58;68.59;101618.44;5022697;28;20357;-81
2023/07/09 05:14:14;;;;;;;23.95;18.95;;;;;;;23.67;66.55;101624.94;5027301;28;20084;-81
2023/07/09 05:16:39;;;;;;;26.10;21.75;;;;;;;23.71;66.74;101614.75;5029044;28;20112;-81
2023/07/09 05:19:07;;;;;;;26.48;20.95;;;;;;;23.79;67.09;101620.38;5017695;28;20381;-81
2023/07/09 05:21:33;;;;;;;30.13;21.05;;;;;;;23.89;66.49;101627.59;5018159;28;20029;-81
2023/07/09 05:23:58;;;;;;;26.48;21.88;;;;;;;23.96;67.16;101627.06;5010332;28;20029;-81
2023/07/09 05:26:23;;;;;;;28.38;23.45;;;;;;;23.98;66.58;101628.66;5028100;28;20391;-81
2023/07/09 05:28:48;;;;;;;27.50;22.05;;;;;;;23.99;65.76;101624.09;5024522;28;20091;-81
2023/07/09 05:31:14;;;;;;;30.27;22.42;;;;;;;24.06;66.45;101628.00;5019694;28;20025;-81
2023/07/09 05:33:39;;;;;;;31.60;22.52;;;;;;;24.09;66.16;101625.88;5032542;28;20112;-81
2023/07/09 05:36:04;;;;;;;27.07;21.63;;;;;;;24.23;66.35;101623.88;5026253;28;20063;-81
2023/07/09 05:38:30;;;;;;;29.23;21.33;;;;;;;24.33;65.80;101622.09;5022965;28;20288;-81
2023/07/09 05:41:03;;;;;;;27.30;21.67;;;;;;;24.41;64.36;101617.75;5029858;28;20041;-81
2023/07/09 05:43:28;;;;;;;30.90;23.63;;;;;;;24.49;65.69;101622.53;5014249;28;20034;-81
2023/07/09 05:45:54;;;;;;;28.65;24.00;;;;;;;24.60;66.76;101624.28;5035695;28;20024;-81
2023/07/09 05:48:19;;;;;;;27.20;21.40;;;;;;;24.69;64.08;101621.63;5024463;28;20059;-81
2023/07/09 05:50:44;;;;;;;30.13;22.40;;;;;;;24.74;65.74;101623.06;5043624;28;20396;-81
2023/07/09 05:53:09;;;;;;;27.83;21.90;;;;;;;24.87;65.64;101623.72;5020851;28;20029;-81
2023/07/09 05:55:35;;;;;;;26.42;21.58;;;;;;;24.93;65.03;101623.16;5022924;28;20279;-81
2023/07/09 05:58:00;;;;;;;24.20;20.88;;;;;;;25.02;63.95;101622.34;5018547;28;20032;-81
2023/07/09 06:00:25;;;;;;;26.40;21.92;;;;;;;25.04;63.79;101624.91;5021399;28;20018;-81
2023/07/09 06:02:51;;;;;;;27.65;20.90;;;;;;;25.10;63.77;101633.38;5020258;28;20033;-81
2023/07/09 06:05:16;;;;;;;25.50;20.92;;;;;;;25.18;62.67;101627.25;5029155;28;20025;-81
2023/07/09 06:07:41;;;;;;;23.25;20.48;;;;;;;25.29;62.56;101624.47;5017013;28;20033;-81
2023/07/09 06:10:09;;;;;;;24.52;21.40;;;;;;;25.35;63.78;101634.72;5024020;28;20033;-81
2023/07/09 06:12:35;;;;;;;25.73;20.38;;;;;;;25.43;62.46;101629.50;5025092;28;20396;-81
2023/07/09 06:15:00;;;;;;;27.38;20.38;;;;;;;25.58;63.23;101645.34;5023029;28;20029;-81
2023/07/09 06:17:25;;;;;;;24.10;20.70;;;;;;;25.64;61.75;101628.53;5027214;28;20123;-81
2023/07/09 06:19:50;;;;;;;22.88;19.40;;;;;;;25.78;61.90;101630.84;5013117;28;20304;-81
2023/07/09 06:22:16;;;;;;;23.47;20.80;;;;;;;25.95;61.15;101634.72;5020626;28;20501;-81
2023/07/09 06:24:41;;;;;;;23.60;19.23;;;;;;;26.06;60.74;101639.13;5027777;28;20284;-81
2023/07/09 06:27:06;;;;;;;24.75;20.13;;;;;;;26.25;59.74;101638.25;5018375;28;20292;-81
2023/07/09 06:29:32;;;;;;;29.40;20.15;;;;;;;26.47;59.96;101634.41;5030199;28;20029;-81
2023/07/09 06:31:57;;;;;;;27.55;19.80;;;;;;;26.62;58.54;101641.94;5021325;28;20033;-81
2023/07/09 06:34:22;;;;;;;26.48;19.55;;;;;;;26.75;57.99;101638.91;5023494;28;20401;-81
2023/07/09 06:36:47;;;;;;;24.13;19.10;;;;;;;26.95;57.54;101646.00;5017096;28;20103;-81
2023/07/09 06:39:13;;;;;;;24.77;18.97;;;;;;;27.08;58.90;101631.22;5025045;28;20399;-81
2023/07/09 06:41:41;;;;;;;27.15;17.48;;;;;;;27.30;57.03;101635.44;5016501;28;20296;-80
2023/07/09 06:44:07;;;;;;;24.60;17.23;;;;;;;27.36;55.97;101635.66;5016260;28;20548;-81
2023/07/09 06:46:33;;;;;;;23.58;17.38;;;;;;;27.58;56.78;101630.84;5019211;28;20028;-81
2023/07/09 06:48:58;;;;;;;23.08;16.73;;;;;;;27.74;56.15;101630.16;5017160;28;20396;-81
2023/07/09 06:51:24;;;;;;;20.83;16.52;;;;;;;27.82;54.21;101631.09;5025117;28;20029;-80
2023/07/09 06:53:51;;;;;;;21.77;16.75;;;;;;;27.91;54.62;101637.47;5023266;28;20025;-80
2023/07/09 06:56:16;;;;;;;21.58;16.10;;;;;;;27.99;53.41;101640.28;5028516;28;20495;-81
2023/07/09 06:58:42;;;;;;;19.25;15.07;;;;;;;28.19;54.34;101639.09;5029741;28;20059;-80
2023/07/09 07:01:09;;;;;;;19.77;15.07;;;;;;;28.36;54.18;101642.84;5019223;28;20404;-80
2023/07/09 07:03:35;;;;;;;18.60;14.23;;;;;;;28.42;53.35;101644.06;5024810;28;20037;-80
2023/07/09 07:06:00;;;;;;;18.77;14.83;;;;;;;28.40;53.78;101646.09;5019912;28;20025;-80
2023/07/09 07:08:26;;;;;;;22.10;16.08;;;;;;;28.23;52.66;101642.34;5017978;28;20296;-80
2023/07/09 07:11:05;;;;;;;20.83;14.75;;;;;;;28.39;54.24;101642.50;5027695;28;20028;-80
2023/07/09 07:13:41;;;;;;;17.45;13.70;;;;;;;28.66;53.44;101646.09;5028735;28;20377;-80
2023/07/09 07:16:11;;;;;;;17.90;13.82;;;;;;;28.57;53.58;101638.91;5022637;28;20029;-80
2023/07/09 07:18:37;;;;;;;19.73;14.40;;;;;;;28.63;55.32;101640.97;5023306;28;20067;-81
2023/07/09 07:21:03;;;;;;;16.63;13.35;;;;;;;28.77;53.25;101643.09;5031409;28;20033;-80
2023/07/09 07:23:29;;;;;;;16.10;13.23;;;;;;;28.86;52.69;101646.72;5016113;28;20037;-80
2023/07/09 07:25:54;;;;;;;17.95;12.88;;;;;;;28.85;53.59;101645.88;5025019;28;20349;-81
2023/07/09 07:28:21;;;;;;;15.95;12.70;;;;;;;28.85;52.47;101648.59;5021303;28;20026;-81
2023/07/09 07:30:46;;;;;;;16.25;11.60;;;;;;;29.06;50.83;101642.78;5015140;28;20564;-81
2023/07/09 07:33:14;;;;;;;16.00;11.40;;;;;;;29.31;54.16;101653.78;5012578;28;20053;-81
2023/07/09 07:35:39;;;;;;;16.75;11.65;;;;;;;29.52;50.82;101651.50;5015390;28;20447;-81
2023/07/09 07:38:04;;;;;;;13.77;11.50;;;;;;;29.91;49.51;101651.75;5019444;28;20018;-81
2023/07/09 07:40:29;;;;;;;12.95;10.88;;;;;;;30.46;47.79;101642.94;5022591;28;20099;-81
2023/07/09 07:42:55;;;;;;;11.00;9.17;;;;;;;31.08;46.70;101644.16;5018705;28;20067;-81
2023/07/09 07:45:21;;;;;;;11.10;8.55;;;;;;;31.39;42.89;101653.28;5025069;28;20410;-81
2023/07/09 07:47:46;;;;;;;13.63;9.02;;;;;;;31.67;42.36;101639.97;5028175;28;20025;-81
2023/07/09 07:50:11;;;;;;;11.65;8.18;;;;;;;32.17;41.86;101637.72;5019770;28;20021;-81
2023/07/09 07:52:37;;;;;;;11.40;7.63;;;;;;;32.36;41.61;101639.09;5022926;28;20034;-81
2023/07/09 07:55:06;;;;;;;11.10;7.63;;;;;;;32.58;41.27;101645.59;5021844;28;20832;-81
2023/07/09 07:57:32;;;;;;;11.32;7.88;;;;;;;32.73;40.97;101636.34;5029211;28;20056;-81
2023/07/09 07:59:57;;;;;;;11.52;7.75;;;;;;;33.17;39.39;101645.66;5030044;28;20022;-81
2023/07/09 08:02:23;;;;;;;11.20;8.43;;;;;;;33.29;39.69;101644.09;5018759;28;20020;-81
2023/07/09 08:04:49;;;;;;;13.65;7.60;;;;;;;33.62;38.24;101646.41;5022401;28;20072;-81
2023/07/09 08:07:17;;;;;;;8.57;6.55;;;;;;;33.47;35.85;101641.84;5011677;28;20389;-81
2023/07/09 08:09:42;;;;;;;8.65;6.75;;;;;;;33.46;36.05;101631.06;5022241;28;20023;-80
2023/07/09 08:12:12;;;;;;;9.27;7.03;;;;;;;33.91;35.85;101629.88;5014636;28;20033;-81
2023/07/09 08:14:39;;;;;;;10.25;6.38;;;;;;;34.14;36.49;101628.84;5021380;28;20022;-81
2023/07/09 08:17:05;;;;;;;11.88;7.70;;;;;;;34.21;36.02;101627.84;5016676;28;20036;-81
2023/07/09 08:19:31;;;;;;;11.73;6.70;;;;;;;34.45;34.70;101625.69;5025288;28;20034;-81
2023/07/09 08:21:56;;;;;;;9.60;7.35;;;;;;;34.26;36.37;101619.84;5019240;28;20029;-81
2023/07/09 08:24:22;;;;;;;9.50;6.63;;;;;;;34.67;33.65;101626.53;5020834;28;20040;-81
2023/07/09 08:26:47;;;;;;;10.13;6.43;;;;;;;35.15;34.03;101634.84;5030015;28;20041;-81
2023/07/09 08:29:12;;;;;;;10.52;7.30;;;;;;;35.31;32.65;101634.50;5026012;28;20029;-81
2023/07/09 08:31:38;;;;;;;9.53;6.03;;;;;;;35.32;32.78;101633.44;5016751;28;20033;-81
2023/07/09 08:34:06;;;;;;;7.32;6.05;;;;;;;35.71;32.46;101623.63;5021203;28;20294;-81
2023/07/09 08:36:31;;;;;;;12.77;6.93;;;;;;;35.71;31.69;101620.88;5028066;28;20032;-81
2023/07/09 08:38:56;;;;;;;8.02;6.30;;;;;;;36.31;30.52;101619.03;5024337;28;20021;-81
2023/07/09 08:41:54;;;;;;;8.45;5.95;;;;;;;36.52;31.47;101629.88;5024548;28;20506;-81
2023/07/09 08:45:02;;;;;;;8.02;6.22;;;;;;;36.80;31.19;101634.28;5027827;28;20439;-81
2023/07/09 08:47:51;;;;;;;9.70;6.50;;;;;;;36.89;29.97;101632.97;5010753;28;20041;-81
2023/07/09 08:50:24;;;;;;;10.38;6.55;;;;;;;37.03;29.95;101622.78;5049671;28;20030;-80
2023/07/09 08:52:53;;;;;;;7.63;6.25;;;;;;;37.43;30.41;101622.63;5025192;28;20117;-81
2023/07/09 08:55:28;;;;;;;9.80;7.07;;;;;;;37.09;30.78;101626.56;5022215;28;20032;-81
2023/07/09 08:58:01;;;;;;;10.00;6.70;;;;;;;37.10;30.77;101633.78;5026833;28;20069;-81
2023/07/09 09:00:26;;;;;;;10.65;6.82;;;;;;;36.90;29.66;101640.16;5019376;28;20029;-81
2023/07/09 09:02:59;;;;;;;9.70;6.73;;;;;;;36.95;30.46;101631.28;5016245;28;20822;-81
2023/07/09 09:05:24;;;;;;;8.18;6.50;;;;;;;36.96;30.49;101636.56;5026671;28;20033;-81
2023/07/09 09:08:00;;;;;;;8.52;6.45;;;;;;;36.72;30.73;101628.97;5015104;28;20053;-81
2023/07/09 09:10:53;;;;;;;9.07;6.45;;;;;;;36.85;32.19;101628.09;5020504;28;20065;-81
2023/07/09 09:13:23;;;;;;;10.77;7.57;;;;;;;36.18;30.39;101614.38;5024383;28;20022;-81
2023/07/09 09:15:49;;;;;;;7.38;6.55;;;;;;;36.23;33.48;101616.50;5025718;28;20036;-81
2023/07/09 09:18:14;;;;;;;10.23;7.22;;;;;;;36.46;32.22;101624.34;5024917;28;20021;-81
2023/07/09 09:20:41;;;;;;;8.43;7.17;;;;;;;36.37;30.65;101620.94;5017661;28;20046;-81
2023/07/09 09:23:06;;;;;;;11.55;7.10;;;;;;;36.30;31.35;101617.34;5016277;28;20507;-81
2023/07/09 09:25:33;;;;;;;7.90;6.43;;;;;;;36.48;31.98;101614.81;5015559;28;20037;-81
2023/07/09 09:28:02;;;;;;;12.95;7.45;;;;;;;36.45;31.14;101615.25;5018530;28;20036;-81
2023/07/09 09:30:29;;;;;;;8.88;7.07;;;;;;;36.36;31.32;101622.00;5021165;28;20558;-81
2023/07/09 09:32:57;;;;;;;10.55;7.10;;;;;;;36.25;31.31;101617.16;5022139;28;20468;-81
2023/07/09 09:35:33;;;;;;;8.65;7.25;;;;;;;36.67;32.39;101615.00;5026856;28;20025;-81
2023/07/09 09:37:59;;;;;;;8.23;6.93;;;;;;;37.04;30.88;101607.91;5015552;28;20469;-81
2023/07/09 09:40:26;;;;;;;9.02;6.70;;;;;;;36.38;30.61;101605.28;5012242;28;20048;-81
2023/07/09 09:42:54;;;;;;;8.38;6.53;;;;;;;36.97;30.72;101602.41;5022974;28;20041;-82
2023/07/09 09:45:28;;;;;;;12.55;6.72;;;;;;;37.35;29.64;101592.47;5019927;28;20034;-81
2023/07/09 09:47:59;;;;;;;7.78;6.30;;;;;;;37.57;30.13;101588.34;5025515;28;20029;-81
2023/07/09 09:50:27;;;;;;;11.27;6.18;;;;;;;37.25;28.39;101587.44;5020849;28;20128;-81
2023/07/09 09:52:52;;;;;;;9.88;6.65;;;;;;;37.30;27.82;101593.16;5030418;28;20040;-81
2023/07/09 09:55:20;;;;;;;10.07;5.72;;;;;;;37.55;28.15;101586.91;5013267;28;20025;-81
2023/07/09 09:57:50;;;;;;;8.43;6.32;;;;;;;37.62;28.78;101577.50;5017658;28;20551;-81
2023/07/09 10:00:16;;;;;;;8.45;6.15;;;;;;;37.93;29.64;101571.13;5016185;28;20025;-81
2023/07/09 10:02:42;;;;;;;9.23;6.20;;;;;;;38.43;28.73;101573.03;5021494;28;20029;-81
2023/07/09 10:05:27;;;;;;;11.05;6.50;;;;;;;38.21;29.87;101569.81;5024175;28;20029;-81
2023/07/09 10:08:02;;;;;;;9.32;6.20;;;;;;;38.67;28.41;101579.59;5017611;28;20535;-81
2023/07/09 10:10:32;;;;;;;9.65;6.35;;;;;;;38.87;28.14;101580.22;5021075;28;20041;-81
2023/07/09 10:13:15;;;;;;;7.20;6.00;;;;;;;38.30;28.10;101582.31;5016220;28;20025;-81
2023/07/09 10:15:54;;;;;;;7.63;6.57;;;;;;;38.91;29.07;101586.13;5013724;28;20057;-81
2023/07/09 10:18:31;;;;;;;6.53;5.70;;;;;;;39.10;28.52;101587.78;5013793;28;20037;-81
2023/07/09 10:21:09;;;;;;;8.40;5.80;;;;;;;38.98;28.63;101584.94;5021355;28;20060;-82
2023/07/09 10:24:11;;;;;;;7.68;5.95;;;;;;;39.40;27.62;101587.81;5013292;28;20033;-81
2023/07/09 10:26:45;;;;;;;8.43;5.53;;;;;;;39.30;26.90;101598.59;5016208;28;20022;-81
2023/07/09 10:29:28;;;;;;;9.30;5.75;;;;;;;39.04;27.07;101597.88;5023841;28;20108;-81
2023/07/09 10:32:02;;;;;;;10.75;5.82;;;;;;;39.03;27.73;101604.47;5027069;28;20033;-81
2023/07/09 10:34:40;;;;;;;6.93;5.45;;;;;;;39.15;27.53;101603.69;5018837;28;20037;-81
2023/07/09 10:37:41;;;;;;;6.20;5.25;;;;;;;39.35;28.25;101607.03;5053976;28;20071;-81
2023/07/09 10:40:10;;;;;;;9.43;6.40;;;;;;;39.45;25.64;101609.25;5030830;28;20029;-81
2023/07/09 10:42:44;;;;;;;6.90;5.72;;;;;;;39.59;25.91;101607.97;5024292;28;20465;-81
2023/07/09 10:45:12;;;;;;;6.55;5.68;;;;;;;39.78;25.75;101608.81;5025207;28;20112;-81
2023/07/09 10:47:44;;;;;;;7.25;5.72;;;;;;;39.94;26.37;101602.56;5019025;28;20022;-81
2023/07/09 10:50:24;;;;;;;10.73;6.47;;;;;;;40.06;26.67;101608.13;5012417;28;20034;-81
2023/07/09 10:52:54;;;;;;;8.60;5.80;;;;;;;40.49;25.26;101602.25;5028018;28;20100;-81
2023/07/09 10:55:32;;;;;;;8.05;5.75;;;;;;;40.51;25.74;101596.47;5019380;28;20112;-81
2023/07/09 10:58:05;;;;;;;6.97;5.40;;;;;;;40.53;24.88;101591.56;5028236;28;20408;-81
2023/07/09 11:00:36;;;;;;;7.55;5.90;;;;;;;39.98;25.58;101586.31;5031062;28;20108;-81
2023/07/09 11:03:14;;;;;;;7.38;5.90;;;;;;;40.16;25.04;101569.63;5017504;28;20064;-81
2023/07/09 11:05:40;;;;;;;8.07;5.47;;;;;;;39.60;26.45;101578.41;5025133;28;20038;-81
2023/07/09 11:08:22;;;;;;;8.02;5.93;;;;;;;38.91;26.27;101575.91;5024233;28;20029;-81
2023/07/09 11:10:55;;;;;;;7.57;5.63;;;;;;;39.04;27.27;101570.22;5022088;28;20488;-81
2023/07/09 11:13:44;;;;;;;8.10;5.80;;;;;;;38.95;26.84;101571.59;5013640;28;20026;-81
2023/07/09 11:16:18;;;;;;;7.72;5.40;;;;;;;39.52;27.24;101577.63;5011556;28;20138;-80
2023/07/09 11:18:55;;;;;;;9.75;6.00;;;;;;;40.04;25.76;101579.81;5016293;28;20028;-80